Return to the overview of this dataset or to the list of all FOR816 datasets.


Value filter for entity: Microclimate(id: 409) of dataset: Forest microclimate ECSF tree T38a understorey (z1) (dsid: 613)

Select attribute to work with:



Order by

Aggregate by date/time

on attribute:

Draw graph of subset

    x     y1     y2  
     
Ta_2m (air temperature in 2m)
Huma_2m (Air humidity 2m)
datetime (Date and Time)

Results:

page: 1 / 75 , page size: , max results: 3724

Ta_2m Huma_2m datetime
16.26 94.0 2004-01-19 21:00:00
15.83 94.8 2004-01-19 21:30:00
15.47 93.2 2004-01-19 22:00:00
15.11 94.8 2004-01-19 22:30:00
14.75 94.8 2004-01-19 23:00:00
14.37 95.2 2004-01-19 23:30:00
14.08 96.7 2004-01-20 00:00:00
13.87 96.7 2004-01-20 00:30:00
13.63 97.0 2004-01-20 01:00:00
13.41 97.7 2004-01-20 01:30:00
13.32 98.5 2004-01-20 02:00:00
13.15 98.5 2004-01-20 02:30:00
12.91 98.1 2004-01-20 03:00:00
12.66 99.1 2004-01-20 03:30:00
12.5 99.1 2004-01-20 04:00:00
12.18 99.1 2004-01-20 04:30:00
12.08 99.8 2004-01-20 05:00:00
11.89 99.1 2004-01-20 05:30:00
11.7 100.2 2004-01-20 06:00:00
11.58 100.5 2004-01-20 06:30:00
11.53 100.5 2004-01-20 07:00:00
11.62 100.8 2004-01-20 07:30:00
11.79 101.5 2004-01-20 08:00:00
12.33 102.1 2004-01-20 08:30:00
12.88 101.8 2004-01-20 09:00:00
13.46 101.5 2004-01-20 09:30:00
14.42 101.5 2004-01-20 10:00:00
15.66 100.5 2004-01-20 10:30:00
17.0 96.3 2004-01-20 11:00:00
18.21 88.7 2004-01-20 11:30:00
19.28 84.3 2004-01-20 12:00:00
18.92 89.5 2004-01-20 12:30:00
19.26 87.4 2004-01-20 13:00:00
19.42 88.7 2004-01-20 13:30:00
18.95 92.4 2004-01-20 14:00:00
18.83 94.4 2004-01-20 14:30:00
18.64 93.6 2004-01-20 15:00:00
19.71 81.1 2004-01-20 15:30:00
20.42 72.3 2004-01-20 16:00:00
20.02 72.3 2004-01-20 16:30:00
19.47 76.8 2004-01-20 17:00:00
18.76 79.6 2004-01-20 17:30:00
18.16 80.1 2004-01-20 18:00:00
17.52 86.1 2004-01-20 18:30:00
16.88 88.7 2004-01-20 19:00:00
16.33 89.9 2004-01-20 19:30:00
15.95 90.8 2004-01-20 20:00:00
15.64 92.0 2004-01-20 20:30:00
15.45 94.0 2004-01-20 21:00:00
15.21 94.4 2004-01-20 21:30:00

page: 1 / 75 , max results: 3724


Return to the overview of this dataset or to the list of all FOR816 datasets.



Quick search

  • Publications:
  • Datasets:

rnse logo

Radar Network Ecuador - Peru